sensor_id;sensor_type;location;lat;lon;timestamp;P1;durP1;ratioP1;P2;durP2;ratioP2
6015;SDS011;3036;49.960;8.454;2023-11-19T00:00:07;8.37;;;4.97;;
6015;SDS011;3036;49.960;8.454;2023-11-19T00:02:36;5.77;;;4.77;;
6015;SDS011;3036;49.960;8.454;2023-11-19T00:05:03;7.60;;;5.20;;
6015;SDS011;3036;49.960;8.454;2023-11-19T00:07:31;7.30;;;5.07;;
6015;SDS011;3036;49.960;8.454;2023-11-19T00:09:58;5.20;;;4.70;;
6015;SDS011;3036;49.960;8.454;2023-11-19T00:12:34;8.20;;;4.07;;
6015;SDS011;3036;49.960;8.454;2023-11-19T00:15:03;6.00;;;4.90;;
6015;SDS011;3036;49.960;8.454;2023-11-19T00:17:30;5.23;;;4.73;;
6015;SDS011;3036;49.960;8.454;2023-11-19T00:19:57;6.57;;;4.53;;
6015;SDS011;3036;49.960;8.454;2023-11-19T00:22:24;6.40;;;5.20;;
6015;SDS011;3036;49.960;8.454;2023-11-19T00:24:52;5.77;;;4.57;;
6015;SDS011;3036;49.960;8.454;2023-11-19T00:27:19;8.03;;;5.03;;
6015;SDS011;3036;49.960;8.454;2023-11-19T00:29:46;5.87;;;4.73;;
6015;SDS011;3036;49.960;8.454;2023-11-19T00:32:15;7.27;;;4.63;;
6015;SDS011;3036;49.960;8.454;2023-11-19T00:34:43;4.90;;;4.00;;
6015;SDS011;3036;49.960;8.454;2023-11-19T00:37:10;6.87;;;4.70;;
6015;SDS011;3036;49.960;8.454;2023-11-19T00:39:37;8.80;;;4.27;;
6015;SDS011;3036;49.960;8.454;2023-11-19T00:42:04;3.90;;;3.57;;
6015;SDS011;3036;49.960;8.454;2023-11-19T00:44:31;4.73;;;3.70;;
6015;SDS011;3036;49.960;8.454;2023-11-19T00:46:58;5.37;;;4.43;;
6015;SDS011;3036;49.960;8.454;2023-11-19T00:49:27;6.17;;;4.40;;
6015;SDS011;3036;49.960;8.454;2023-11-19T00:51:54;4.90;;;4.27;;
6015;SDS011;3036;49.960;8.454;2023-11-19T00:54:21;5.57;;;4.50;;
6015;SDS011;3036;49.960;8.454;2023-11-19T00:56:50;5.17;;;4.67;;
6015;SDS011;3036;49.960;8.454;2023-11-19T00:59:17;5.50;;;4.70;;
6015;SDS011;3036;49.960;8.454;2023-11-19T01:01:44;4.97;;;4.53;;
6015;SDS011;3036;49.960;8.454;2023-11-19T01:04:13;4.67;;;4.33;;
6015;SDS011;3036;49.960;8.454;2023-11-19T01:06:41;5.27;;;4.50;;
6015;SDS011;3036;49.960;8.454;2023-11-19T01:09:08;6.00;;;4.67;;
6015;SDS011;3036;49.960;8.454;2023-11-19T01:11:35;4.97;;;4.57;;
6015;SDS011;3036;49.960;8.454;2023-11-19T01:14:02;5.57;;;5.07;;
6015;SDS011;3036;49.960;8.454;2023-11-19T01:16:29;5.23;;;4.77;;
6015;SDS011;3036;49.960;8.454;2023-11-19T01:18:57;6.80;;;5.00;;
6015;SDS011;3036;49.960;8.454;2023-11-19T01:21:25;7.27;;;4.67;;
6015;SDS011;3036;49.960;8.454;2023-11-19T01:23:54;5.53;;;4.30;;
6015;SDS011;3036;49.960;8.454;2023-11-19T01:26:21;8.50;;;4.47;;
6015;SDS011;3036;49.960;8.454;2023-11-19T01:28:48;4.20;;;3.90;;
6015;SDS011;3036;49.960;8.454;2023-11-19T01:31:17;4.73;;;4.20;;
6015;SDS011;3036;49.960;8.454;2023-11-19T01:33:44;4.80;;;4.30;;
6015;SDS011;3036;49.960;8.454;2023-11-19T01:36:12;4.80;;;4.40;;
6015;SDS011;3036;49.960;8.454;2023-11-19T01:38:39;5.20;;;4.30;;
6015;SDS011;3036;49.960;8.454;2023-11-19T01:41:08;5.20;;;4.70;;
6015;SDS011;3036;49.960;8.454;2023-11-19T01:43:35;4.83;;;4.40;;
6015;SDS011;3036;49.960;8.454;2023-11-19T01:46:04;4.40;;;4.00;;
6015;SDS011;3036;49.960;8.454;2023-11-19T01:48:31;3.87;;;3.60;;
6015;SDS011;3036;49.960;8.454;2023-11-19T01:51:00;4.50;;;4.10;;
6015;SDS011;3036;49.960;8.454;2023-11-19T01:53:27;6.10;;;3.57;;
6015;SDS011;3036;49.960;8.454;2023-11-19T01:55:55;4.73;;;4.20;;
6015;SDS011;3036;49.960;8.454;2023-11-19T01:58:24;5.30;;;3.87;;
6015;SDS011;3036;49.960;8.454;2023-11-19T02:00:51;4.50;;;4.10;;
6015;SDS011;3036;49.960;8.454;2023-11-19T02:03:18;6.40;;;3.90;;
6015;SDS011;3036;49.960;8.454;2023-11-19T02:05:46;5.77;;;4.13;;
6015;SDS011;3036;49.960;8.454;2023-11-19T02:08:15;3.83;;;3.47;;
6015;SDS011;3036;49.960;8.454;2023-11-19T02:10:42;4.40;;;4.10;;
6015;SDS011;3036;49.960;8.454;2023-11-19T02:13:09;4.37;;;3.97;;
6015;SDS011;3036;49.960;8.454;2023-11-19T02:15:40;3.80;;;3.60;;
6015;SDS011;3036;49.960;8.454;2023-11-19T02:18:23;5.07;;;4.57;;
6015;SDS011;3036;49.960;8.454;2023-11-19T02:20:52;4.10;;;3.80;;
6015;SDS011;3036;49.960;8.454;2023-11-19T02:23:20;4.00;;;3.70;;
6015;SDS011;3036;49.960;8.454;2023-11-19T02:25:50;4.87;;;3.80;;
6015;SDS011;3036;49.960;8.454;2023-11-19T02:28:20;8.37;;;3.93;;
6015;SDS011;3036;49.960;8.454;2023-11-19T02:30:47;3.90;;;3.70;;
6015;SDS011;3036;49.960;8.454;2023-11-19T02:33:14;4.20;;;4.00;;
6015;SDS011;3036;49.960;8.454;2023-11-19T02:35:41;3.70;;;3.50;;
6015;SDS011;3036;49.960;8.454;2023-11-19T02:38:08;3.37;;;3.17;;
6015;SDS011;3036;49.960;8.454;2023-11-19T02:40:36;4.03;;;3.73;;
6015;SDS011;3036;49.960;8.454;2023-11-19T02:43:03;4.30;;;3.57;;
6015;SDS011;3036;49.960;8.454;2023-11-19T02:45:32;3.30;;;3.10;;
6015;SDS011;3036;49.960;8.454;2023-11-19T02:47:59;3.17;;;2.97;;
6015;SDS011;3036;49.960;8.454;2023-11-19T02:50:27;3.47;;;3.27;;
6015;SDS011;3036;49.960;8.454;2023-11-19T02:52:55;3.50;;;3.30;;
6015;SDS011;3036;49.960;8.454;2023-11-19T02:55:22;2.83;;;2.73;;
6015;SDS011;3036;49.960;8.454;2023-11-19T02:57:50;3.20;;;3.00;;
6015;SDS011;3036;49.960;8.454;2023-11-19T03:00:18;5.10;;;3.27;;
6015;SDS011;3036;49.960;8.454;2023-11-19T03:02:50;3.17;;;2.97;;
6015;SDS011;3036;49.960;8.454;2023-11-19T03:05:24;2.80;;;2.60;;
6015;SDS011;3036;49.960;8.454;2023-11-19T03:07:51;3.20;;;3.00;;
6015;SDS011;3036;49.960;8.454;2023-11-19T03:10:18;3.40;;;3.10;;
6015;SDS011;3036;49.960;8.454;2023-11-19T03:12:45;2.90;;;2.80;;
6015;SDS011;3036;49.960;8.454;2023-11-19T03:15:13;3.10;;;2.90;;
6015;SDS011;3036;49.960;8.454;2023-11-19T03:17:41;2.57;;;2.47;;
6015;SDS011;3036;49.960;8.454;2023-11-19T03:20:10;3.03;;;2.93;;
6015;SDS011;3036;49.960;8.454;2023-11-19T03:22:40;3.77;;;2.83;;
6015;SDS011;3036;49.960;8.454;2023-11-19T03:25:08;2.60;;;2.50;;
6015;SDS011;3036;49.960;8.454;2023-11-19T03:27:35;3.00;;;2.77;;
6015;SDS011;3036;49.960;8.454;2023-11-19T03:30:03;2.70;;;2.60;;
6015;SDS011;3036;49.960;8.454;2023-11-19T03:32:31;4.53;;;2.70;;
6015;SDS011;3036;49.960;8.454;2023-11-19T03:35:00;2.47;;;2.37;;
6015;SDS011;3036;49.960;8.454;2023-11-19T03:37:30;2.87;;;2.63;;
6015;SDS011;3036;49.960;8.454;2023-11-19T03:39:58;2.40;;;2.30;;
6015;SDS011;3036;49.960;8.454;2023-11-19T03:42:25;3.00;;;2.70;;
6015;SDS011;3036;49.960;8.454;2023-11-19T03:44:52;2.20;;;2.10;;
6015;SDS011;3036;49.960;8.454;2023-11-19T03:47:20;2.07;;;1.97;;
6015;SDS011;3036;49.960;8.454;2023-11-19T03:49:47;2.17;;;1.80;;
6015;SDS011;3036;49.960;8.454;2023-11-19T03:52:15;1.83;;;1.73;;
6015;SDS011;3036;49.960;8.454;2023-11-19T03:54:43;2.00;;;1.90;;
6015;SDS011;3036;49.960;8.454;2023-11-19T03:57:11;1.80;;;1.80;;
6015;SDS011;3036;49.960;8.454;2023-11-19T03:59:38;1.70;;;1.70;;
6015;SDS011;3036;49.960;8.454;2023-11-19T04:02:05;1.70;;;1.70;;
6015;SDS011;3036;49.960;8.454;2023-11-19T04:04:32;2.00;;;1.40;;
6015;SDS011;3036;49.960;8.454;2023-11-19T04:07:00;2.10;;;1.47;;
6015;SDS011;3036;49.960;8.454;2023-11-19T04:09:28;1.67;;;1.67;;
6015;SDS011;3036;49.960;8.454;2023-11-19T04:11:56;1.57;;;1.57;;
6015;SDS011;3036;49.960;8.454;2023-11-19T04:14:23;1.40;;;1.40;;
6015;SDS011;3036;49.960;8.454;2023-11-19T04:16:50;1.80;;;1.57;;
6015;SDS011;3036;49.960;8.454;2023-11-19T04:19:17;1.30;;;1.30;;
6015;SDS011;3036;49.960;8.454;2023-11-19T04:21:44;1.57;;;1.20;;
6015;SDS011;3036;49.960;8.454;2023-11-19T04:24:12;2.30;;;1.57;;
6015;SDS011;3036;49.960;8.454;2023-11-19T04:26:42;1.73;;;1.63;;
6015;SDS011;3036;49.960;8.454;2023-11-19T04:29:12;1.40;;;1.40;;
6015;SDS011;3036;49.960;8.454;2023-11-19T04:31:42;1.70;;;1.60;;
6015;SDS011;3036;49.960;8.454;2023-11-19T04:34:09;1.33;;;1.20;;
6015;SDS011;3036;49.960;8.454;2023-11-19T04:36:37;1.30;;;1.30;;
6015;SDS011;3036;49.960;8.454;2023-11-19T04:39:04;1.33;;;1.33;;
6015;SDS011;3036;49.960;8.454;2023-11-19T04:41:34;2.73;;;1.70;;
6015;SDS011;3036;49.960;8.454;2023-11-19T04:44:01;1.20;;;1.20;;
6015;SDS011;3036;49.960;8.454;2023-11-19T04:46:30;1.60;;;1.53;;
6015;SDS011;3036;49.960;8.454;2023-11-19T04:48:57;1.53;;;1.43;;
6015;SDS011;3036;49.960;8.454;2023-11-19T04:51:24;1.43;;;1.37;;
6015;SDS011;3036;49.960;8.454;2023-11-19T04:53:51;1.73;;;1.60;;
6015;SDS011;3036;49.960;8.454;2023-11-19T04:56:18;2.73;;;1.83;;
6015;SDS011;3036;49.960;8.454;2023-11-19T04:58:48;1.63;;;1.30;;
6015;SDS011;3036;49.960;8.454;2023-11-19T05:01:15;1.27;;;1.27;;
6015;SDS011;3036;49.960;8.454;2023-11-19T05:03:44;1.40;;;1.30;;
6015;SDS011;3036;49.960;8.454;2023-11-19T05:06:11;1.23;;;1.23;;
6015;SDS011;3036;49.960;8.454;2023-11-19T05:08:38;1.30;;;1.20;;
6015;SDS011;3036;49.960;8.454;2023-11-19T05:11:05;1.20;;;1.10;;
6015;SDS011;3036;49.960;8.454;2023-11-19T05:13:32;1.40;;;1.40;;
6015;SDS011;3036;49.960;8.454;2023-11-19T05:15:59;1.10;;;1.10;;
6015;SDS011;3036;49.960;8.454;2023-11-19T05:18:26;1.30;;;1.27;;
6015;SDS011;3036;49.960;8.454;2023-11-19T05:20:55;1.10;;;1.10;;
6015;SDS011;3036;49.960;8.454;2023-11-19T05:23:22;1.30;;;1.07;;
6015;SDS011;3036;49.960;8.454;2023-11-19T05:25:49;1.13;;;1.10;;
6015;SDS011;3036;49.960;8.454;2023-11-19T05:28:16;1.20;;;1.20;;
6015;SDS011;3036;49.960;8.454;2023-11-19T05:30:43;0.97;;;0.97;;
6015;SDS011;3036;49.960;8.454;2023-11-19T05:33:10;1.63;;;1.30;;
6015;SDS011;3036;49.960;8.454;2023-11-19T05:35:37;1.00;;;0.83;;
6015;SDS011;3036;49.960;8.454;2023-11-19T05:38:05;0.93;;;0.93;;
6015;SDS011;3036;49.960;8.454;2023-11-19T05:40:32;1.03;;;0.80;;
6015;SDS011;3036;49.960;8.454;2023-11-19T05:42:59;0.90;;;0.90;;
6015;SDS011;3036;49.960;8.454;2023-11-19T05:45:27;1.23;;;0.90;;
6015;SDS011;3036;49.960;8.454;2023-11-19T05:47:54;3.10;;;1.10;;
6015;SDS011;3036;49.960;8.454;2023-11-19T05:50:21;1.67;;;0.80;;
6015;SDS011;3036;49.960;8.454;2023-11-19T05:52:48;1.43;;;0.90;;
6015;SDS011;3036;49.960;8.454;2023-11-19T05:55:16;2.70;;;0.77;;
6015;SDS011;3036;49.960;8.454;2023-11-19T05:57:44;2.10;;;0.93;;
6015;SDS011;3036;49.960;8.454;2023-11-19T06:00:11;1.07;;;1.03;;
6015;SDS011;3036;49.960;8.454;2023-11-19T06:02:40;0.97;;;0.97;;
6015;SDS011;3036;49.960;8.454;2023-11-19T06:05:10;0.60;;;0.60;;
6015;SDS011;3036;49.960;8.454;2023-11-19T06:07:37;0.70;;;0.70;;
6015;SDS011;3036;49.960;8.454;2023-11-19T06:10:06;1.00;;;1.00;;
6015;SDS011;3036;49.960;8.454;2023-11-19T06:12:36;0.90;;;0.90;;
6015;SDS011;3036;49.960;8.454;2023-11-19T06:15:06;2.70;;;0.90;;
6015;SDS011;3036;49.960;8.454;2023-11-19T06:17:33;2.10;;;0.60;;
6015;SDS011;3036;49.960;8.454;2023-11-19T06:20:00;1.00;;;1.00;;
6015;SDS011;3036;49.960;8.454;2023-11-19T06:22:29;0.90;;;0.90;;
6015;SDS011;3036;49.960;8.454;2023-11-19T06:24:56;0.90;;;0.90;;
6015;SDS011;3036;49.960;8.454;2023-11-19T06:27:25;1.60;;;0.80;;
6015;SDS011;3036;49.960;8.454;2023-11-19T06:29:53;2.00;;;0.83;;
6015;SDS011;3036;49.960;8.454;2023-11-19T06:32:20;0.90;;;0.90;;
6015;SDS011;3036;49.960;8.454;2023-11-19T06:34:47;0.80;;;0.80;;
6015;SDS011;3036;49.960;8.454;2023-11-19T06:37:14;1.63;;;1.10;;
6015;SDS011;3036;49.960;8.454;2023-11-19T06:39:41;1.00;;;1.00;;
6015;SDS011;3036;49.960;8.454;2023-11-19T06:42:09;1.80;;;1.70;;
6015;SDS011;3036;49.960;8.454;2023-11-19T06:44:36;1.70;;;1.63;;
6015;SDS011;3036;49.960;8.454;2023-11-19T06:47:04;1.03;;;1.03;;
6015;SDS011;3036;49.960;8.454;2023-11-19T06:49:32;1.00;;;1.00;;
6015;SDS011;3036;49.960;8.454;2023-11-19T06:51:59;1.10;;;1.10;;
6015;SDS011;3036;49.960;8.454;2023-11-19T06:54:26;1.00;;;1.00;;
6015;SDS011;3036;49.960;8.454;2023-11-19T06:56:53;1.60;;;0.93;;
6015;SDS011;3036;49.960;8.454;2023-11-19T06:59:20;1.30;;;1.30;;
6015;SDS011;3036;49.960;8.454;2023-11-19T07:01:47;1.07;;;1.07;;
6015;SDS011;3036;49.960;8.454;2023-11-19T07:04:15;1.20;;;1.20;;
6015;SDS011;3036;49.960;8.454;2023-11-19T07:06:42;1.00;;;1.00;;
6015;SDS011;3036;49.960;8.454;2023-11-19T07:09:09;1.20;;;1.20;;
6015;SDS011;3036;49.960;8.454;2023-11-19T07:11:37;1.80;;;1.07;;
6015;SDS011;3036;49.960;8.454;2023-11-19T07:14:04;5.93;;;1.40;;
6015;SDS011;3036;49.960;8.454;2023-11-19T07:16:31;1.17;;;1.17;;
6015;SDS011;3036;49.960;8.454;2023-11-19T07:18:59;1.07;;;1.07;;
6015;SDS011;3036;49.960;8.454;2023-11-19T07:21:27;1.00;;;1.00;;
6015;SDS011;3036;49.960;8.454;2023-11-19T07:23:54;1.40;;;1.40;;
6015;SDS011;3036;49.960;8.454;2023-11-19T07:26:22;1.30;;;1.30;;
6015;SDS011;3036;49.960;8.454;2023-11-19T07:28:49;1.00;;;1.00;;
6015;SDS011;3036;49.960;8.454;2023-11-19T07:31:16;1.03;;;1.03;;
6015;SDS011;3036;49.960;8.454;2023-11-19T07:33:44;1.23;;;1.23;;
6015;SDS011;3036;49.960;8.454;2023-11-19T07:36:10;1.07;;;1.07;;
6015;SDS011;3036;49.960;8.454;2023-11-19T07:38:39;1.20;;;1.20;;
6015;SDS011;3036;49.960;8.454;2023-11-19T07:41:06;1.20;;;1.20;;
6015;SDS011;3036;49.960;8.454;2023-11-19T07:43:34;1.40;;;1.40;;
6015;SDS011;3036;49.960;8.454;2023-11-19T07:46:02;1.43;;;1.43;;
6015;SDS011;3036;49.960;8.454;2023-11-19T07:48:29;1.43;;;1.30;;
6015;SDS011;3036;49.960;8.454;2023-11-19T07:50:56;1.30;;;1.30;;
6015;SDS011;3036;49.960;8.454;2023-11-19T07:53:23;1.50;;;1.50;;
6015;SDS011;3036;49.960;8.454;2023-11-19T07:55:52;1.50;;;1.40;;
6015;SDS011;3036;49.960;8.454;2023-11-19T07:58:19;1.70;;;1.57;;
6015;SDS011;3036;49.960;8.454;2023-11-19T08:00:46;1.77;;;1.47;;
6015;SDS011;3036;49.960;8.454;2023-11-19T08:03:13;2.47;;;1.70;;
6015;SDS011;3036;49.960;8.454;2023-11-19T08:05:40;3.13;;;1.83;;
6015;SDS011;3036;49.960;8.454;2023-11-19T08:08:07;1.83;;;1.57;;
6015;SDS011;3036;49.960;8.454;2023-11-19T08:10:34;3.53;;;1.50;;
6015;SDS011;3036;49.960;8.454;2023-11-19T08:13:02;1.70;;;1.67;;
6015;SDS011;3036;49.960;8.454;2023-11-19T08:15:30;2.03;;;1.87;;
6015;SDS011;3036;49.960;8.454;2023-11-19T08:17:57;2.27;;;2.10;;
6015;SDS011;3036;49.960;8.454;2023-11-19T08:20:24;3.20;;;3.00;;
6015;SDS011;3036;49.960;8.454;2023-11-19T08:22:51;2.30;;;2.20;;
6015;SDS011;3036;49.960;8.454;2023-11-19T08:25:18;2.27;;;2.13;;
6015;SDS011;3036;49.960;8.454;2023-11-19T08:27:45;1.63;;;1.63;;
6015;SDS011;3036;49.960;8.454;2023-11-19T08:30:14;1.83;;;1.73;;
6015;SDS011;3036;49.960;8.454;2023-11-19T08:32:41;4.47;;;2.20;;
6015;SDS011;3036;49.960;8.454;2023-11-19T08:35:08;3.63;;;2.13;;
6015;SDS011;3036;49.960;8.454;2023-11-19T08:37:35;2.80;;;2.10;;
6015;SDS011;3036;49.960;8.454;2023-11-19T08:40:03;3.30;;;2.40;;
6015;SDS011;3036;49.960;8.454;2023-11-19T08:42:32;2.43;;;2.17;;
6015;SDS011;3036;49.960;8.454;2023-11-19T08:44:59;2.07;;;1.97;;
6015;SDS011;3036;49.960;8.454;2023-11-19T08:47:27;2.97;;;2.07;;
6015;SDS011;3036;49.960;8.454;2023-11-19T08:49:54;1.90;;;1.80;;
6015;SDS011;3036;49.960;8.454;2023-11-19T08:52:21;1.93;;;1.80;;
6015;SDS011;3036;49.960;8.454;2023-11-19T08:54:48;1.77;;;1.67;;
6015;SDS011;3036;49.960;8.454;2023-11-19T08:57:15;2.10;;;1.60;;
6015;SDS011;3036;49.960;8.454;2023-11-19T08:59:42;4.70;;;1.50;;
6015;SDS011;3036;49.960;8.454;2023-11-19T09:02:10;1.10;;;1.10;;
6015;SDS011;3036;49.960;8.454;2023-11-19T09:04:39;2.57;;;1.10;;
6015;SDS011;3036;49.960;8.454;2023-11-19T09:07:06;1.00;;;1.00;;
6015;SDS011;3036;49.960;8.454;2023-11-19T09:09:34;1.03;;;1.00;;
6015;SDS011;3036;49.960;8.454;2023-11-19T09:12:01;1.30;;;1.30;;
6015;SDS011;3036;49.960;8.454;2023-11-19T09:14:29;1.37;;;1.20;;
6015;SDS011;3036;49.960;8.454;2023-11-19T09:16:56;5.70;;;1.77;;
6015;SDS011;3036;49.960;8.454;2023-11-19T09:19:23;1.50;;;1.40;;
6015;SDS011;3036;49.960;8.454;2023-11-19T09:21:52;1.60;;;1.50;;
6015;SDS011;3036;49.960;8.454;2023-11-19T09:24:19;1.20;;;1.20;;
6015;SDS011;3036;49.960;8.454;2023-11-19T09:26:46;1.57;;;1.23;;
6015;SDS011;3036;49.960;8.454;2023-11-19T09:29:13;1.48;;;1.00;;
6015;SDS011;3036;49.960;8.454;2023-11-19T09:31:41;0.95;;;0.90;;
6015;SDS011;3036;49.960;8.454;2023-11-19T09:34:08;2.38;;;0.85;;
6015;SDS011;3036;49.960;8.454;2023-11-19T09:36:35;4.43;;;0.77;;
6015;SDS011;3036;49.960;8.454;2023-11-19T09:39:04;1.85;;;0.77;;
6015;SDS011;3036;49.960;8.454;2023-11-19T09:41:33;3.30;;;0.88;;
6015;SDS011;3036;49.960;8.454;2023-11-19T09:44:00;2.42;;;0.70;;
6015;SDS011;3036;49.960;8.454;2023-11-19T09:46:27;1.05;;;0.77;;
6015;SDS011;3036;49.960;8.454;2023-11-19T09:48:55;4.70;;;0.90;;
6015;SDS011;3036;49.960;8.454;2023-11-19T09:51:23;1.90;;;1.00;;
6015;SDS011;3036;49.960;8.454;2023-11-19T09:53:50;2.67;;;0.90;;
6015;SDS011;3036;49.960;8.454;2023-11-19T09:56:18;5.20;;;0.77;;
6015;SDS011;3036;49.960;8.454;2023-11-19T09:58:47;4.13;;;1.02;;
6015;SDS011;3036;49.960;8.454;2023-11-19T10:01:14;2.28;;;0.88;;
6015;SDS011;3036;49.960;8.454;2023-11-19T10:03:41;2.00;;;1.02;;
6015;SDS011;3036;49.960;8.454;2023-11-19T10:06:09;4.38;;;1.15;;
6015;SDS011;3036;49.960;8.454;2023-11-19T10:08:37;4.38;;;1.48;;
6015;SDS011;3036;49.960;8.454;2023-11-19T10:11:04;4.22;;;0.90;;
6015;SDS011;3036;49.960;8.454;2023-11-19T10:13:33;5.15;;;0.93;;
6015;SDS011;3036;49.960;8.454;2023-11-19T10:16:03;7.22;;;1.10;;
6015;SDS011;3036;49.960;8.454;2023-11-19T10:18:31;3.75;;;0.80;;
6015;SDS011;3036;49.960;8.454;2023-11-19T10:21:03;2.50;;;0.77;;
6015;SDS011;3036;49.960;8.454;2023-11-19T10:23:30;1.27;;;0.73;;
6015;SDS011;3036;49.960;8.454;2023-11-19T10:26:02;3.30;;;1.20;;
6015;SDS011;3036;49.960;8.454;2023-11-19T10:28:39;2.85;;;0.90;;
6015;SDS011;3036;49.960;8.454;2023-11-19T10:31:08;3.22;;;0.80;;
6015;SDS011;3036;49.960;8.454;2023-11-19T10:33:35;0.77;;;0.75;;
6015;SDS011;3036;49.960;8.454;2023-11-19T10:36:05;2.28;;;0.77;;
6015;SDS011;3036;49.960;8.454;2023-11-19T10:38:32;3.83;;;1.23;;
6015;SDS011;3036;49.960;8.454;2023-11-19T10:41:00;1.95;;;0.93;;
6015;SDS011;3036;49.960;8.454;2023-11-19T10:43:27;2.97;;;1.10;;
6015;SDS011;3036;49.960;8.454;2023-11-19T10:45:56;3.90;;;1.35;;
6015;SDS011;3036;49.960;8.454;2023-11-19T10:48:35;6.68;;;1.33;;
6015;SDS011;3036;49.960;8.454;2023-11-19T10:51:02;4.32;;;1.17;;
6015;SDS011;3036;49.960;8.454;2023-11-19T10:53:32;4.22;;;1.40;;
6015;SDS011;3036;49.960;8.454;2023-11-19T10:56:00;0.80;;;0.60;;
6015;SDS011;3036;49.960;8.454;2023-11-19T10:58:28;2.83;;;1.45;;
6015;SDS011;3036;49.960;8.454;2023-11-19T11:01:01;3.22;;;0.90;;
6015;SDS011;3036;49.960;8.454;2023-11-19T11:03:31;3.00;;;1.30;;
6015;SDS011;3036;49.960;8.454;2023-11-19T11:06:01;3.22;;;0.98;;
6015;SDS011;3036;49.960;8.454;2023-11-19T11:08:30;4.28;;;1.35;;
6015;SDS011;3036;49.960;8.454;2023-11-19T11:10:57;3.90;;;1.33;;
6015;SDS011;3036;49.960;8.454;2023-11-19T11:13:25;1.27;;;0.73;;
6015;SDS011;3036;49.960;8.454;2023-11-19T11:15:54;1.52;;;1.20;;
6015;SDS011;3036;49.960;8.454;2023-11-19T11:18:24;4.03;;;1.33;;
6015;SDS011;3036;49.960;8.454;2023-11-19T11:20:52;2.40;;;1.10;;
6015;SDS011;3036;49.960;8.454;2023-11-19T11:23:34;2.05;;;0.85;;
6015;SDS011;3036;49.960;8.454;2023-11-19T11:26:09;5.75;;;1.10;;
6015;SDS011;3036;49.960;8.454;2023-11-19T11:28:43;3.63;;;1.00;;
6015;SDS011;3036;49.960;8.454;2023-11-19T11:31:18;6.90;;;1.38;;
6015;SDS011;3036;49.960;8.454;2023-11-19T11:33:59;4.70;;;1.05;;
6015;SDS011;3036;49.960;8.454;2023-11-19T11:36:28;6.57;;;1.55;;
6015;SDS011;3036;49.960;8.454;2023-11-19T11:38:58;5.78;;;2.15;;
6015;SDS011;3036;49.960;8.454;2023-11-19T11:41:26;4.82;;;1.27;;
6015;SDS011;3036;49.960;8.454;2023-11-19T11:43:55;5.45;;;1.45;;
6015;SDS011;3036;49.960;8.454;2023-11-19T11:49:12;2.55;;;0.85;;
6015;SDS011;3036;49.960;8.454;2023-11-19T11:51:57;4.95;;;1.65;;
6015;SDS011;3036;49.960;8.454;2023-11-19T11:54:28;3.50;;;2.00;;
6015;SDS011;3036;49.960;8.454;2023-11-19T11:57:00;4.70;;;1.58;;
6015;SDS011;3036;49.960;8.454;2023-11-19T11:59:31;2.83;;;0.88;;
6015;SDS011;3036;49.960;8.454;2023-11-19T12:01:58;2.13;;;1.27;;
6015;SDS011;3036;49.960;8.454;2023-11-19T12:04:27;2.03;;;1.00;;
6015;SDS011;3036;49.960;8.454;2023-11-19T12:07:02;3.22;;;1.00;;
6015;SDS011;3036;49.960;8.454;2023-11-19T12:09:30;3.63;;;0.82;;
6015;SDS011;3036;49.960;8.454;2023-11-19T12:12:07;1.58;;;1.48;;
6015;SDS011;3036;49.960;8.454;2023-11-19T12:20:05;1.02;;;1.02;;
6015;SDS011;3036;49.960;8.454;2023-11-19T12:22:33;4.22;;;0.98;;
6015;SDS011;3036;49.960;8.454;2023-11-19T12:25:01;1.85;;;0.70;;
6015;SDS011;3036;49.960;8.454;2023-11-19T12:27:29;2.88;;;0.85;;
6015;SDS011;3036;49.960;8.454;2023-11-19T12:29:56;1.67;;;0.80;;
6015;SDS011;3036;49.960;8.454;2023-11-19T12:32:23;3.72;;;1.27;;
6015;SDS011;3036;49.960;8.454;2023-11-19T12:34:50;5.85;;;1.77;;
6015;SDS011;3036;49.960;8.454;2023-11-19T12:37:19;3.20;;;1.20;;
6015;SDS011;3036;49.960;8.454;2023-11-19T12:39:46;4.20;;;1.05;;
6015;SDS011;3036;49.960;8.454;2023-11-19T12:42:13;3.72;;;1.67;;
6015;SDS011;3036;49.960;8.454;2023-11-19T12:44:51;2.92;;;1.20;;
6015;SDS011;3036;49.960;8.454;2023-11-19T12:47:18;8.70;;;2.00;;
6015;SDS011;3036;49.960;8.454;2023-11-19T12:49:54;5.72;;;1.35;;
6015;SDS011;3036;49.960;8.454;2023-11-19T12:52:23;1.52;;;0.77;;
6015;SDS011;3036;49.960;8.454;2023-11-19T12:54:50;3.42;;;0.95;;
6015;SDS011;3036;49.960;8.454;2023-11-19T12:57:17;6.18;;;0.80;;
6015;SDS011;3036;49.960;8.454;2023-11-19T12:59:54;3.88;;;1.70;;
6015;SDS011;3036;49.960;8.454;2023-11-19T13:02:21;2.17;;;1.00;;
6015;SDS011;3036;49.960;8.454;2023-11-19T13:04:49;4.18;;;1.15;;
6015;SDS011;3036;49.960;8.454;2023-11-19T13:07:20;3.03;;;1.20;;
6015;SDS011;3036;49.960;8.454;2023-11-19T13:09:48;4.35;;;1.05;;
6015;SDS011;3036;49.960;8.454;2023-11-19T13:12:18;3.33;;;1.10;;
6015;SDS011;3036;49.960;8.454;2023-11-19T13:14:45;3.75;;;1.20;;
6015;SDS011;3036;49.960;8.454;2023-11-19T13:17:14;4.50;;;1.20;;
6015;SDS011;3036;49.960;8.454;2023-11-19T13:19:41;3.92;;;1.13;;
6015;SDS011;3036;49.960;8.454;2023-11-19T13:22:09;3.10;;;1.33;;
6015;SDS011;3036;49.960;8.454;2023-11-19T13:24:36;5.60;;;0.90;;
6015;SDS011;3036;49.960;8.454;2023-11-19T13:27:06;5.05;;;1.85;;
6015;SDS011;3036;49.960;8.454;2023-11-19T13:29:33;4.28;;;1.02;;
6015;SDS011;3036;49.960;8.454;2023-11-19T13:32:00;2.33;;;0.80;;
6015;SDS011;3036;49.960;8.454;2023-11-19T13:34:29;1.77;;;0.68;;
6015;SDS011;3036;49.960;8.454;2023-11-19T13:36:56;4.20;;;1.23;;
6015;SDS011;3036;49.960;8.454;2023-11-19T13:39:23;3.53;;;0.95;;
6015;SDS011;3036;49.960;8.454;2023-11-19T13:41:50;5.40;;;1.02;;
6015;SDS011;3036;49.960;8.454;2023-11-19T13:44:19;4.30;;;0.90;;
6015;SDS011;3036;49.960;8.454;2023-11-19T13:46:46;3.70;;;1.20;;
6015;SDS011;3036;49.960;8.454;2023-11-19T13:49:13;6.63;;;1.00;;
6015;SDS011;3036;49.960;8.454;2023-11-19T13:51:40;5.15;;;0.77;;
6015;SDS011;3036;49.960;8.454;2023-11-19T13:54:07;2.20;;;0.90;;
6015;SDS011;3036;49.960;8.454;2023-11-19T13:56:34;3.85;;;0.80;;
6015;SDS011;3036;49.960;8.454;2023-11-19T13:59:01;3.53;;;1.02;;
6015;SDS011;3036;49.960;8.454;2023-11-19T14:01:30;4.05;;;1.02;;
6015;SDS011;3036;49.960;8.454;2023-11-19T14:03:57;1.48;;;0.80;;
6015;SDS011;3036;49.960;8.454;2023-11-19T14:06:26;4.22;;;1.20;;
6015;SDS011;3036;49.960;8.454;2023-11-19T14:08:54;2.38;;;0.60;;
6015;SDS011;3036;49.960;8.454;2023-11-19T14:11:21;6.43;;;1.08;;
6015;SDS011;3036;49.960;8.454;2023-11-19T14:13:48;2.55;;;1.33;;
6015;SDS011;3036;49.960;8.454;2023-11-19T14:16:16;3.25;;;1.05;;
6015;SDS011;3036;49.960;8.454;2023-11-19T14:18:45;6.40;;;1.10;;
6015;SDS011;3036;49.960;8.454;2023-11-19T14:21:14;3.80;;;1.20;;
6015;SDS011;3036;49.960;8.454;2023-11-19T14:23:41;2.67;;;0.90;;
6015;SDS011;3036;49.960;8.454;2023-11-19T14:26:08;2.78;;;1.13;;
6015;SDS011;3036;49.960;8.454;2023-11-19T14:28:35;1.80;;;0.90;;
6015;SDS011;3036;49.960;8.454;2023-11-19T14:31:02;1.63;;;1.08;;
6015;SDS011;3036;49.960;8.454;2023-11-19T14:33:29;4.68;;;1.33;;
6015;SDS011;3036;49.960;8.454;2023-11-19T14:35:58;2.58;;;1.13;;
6015;SDS011;3036;49.960;8.454;2023-11-19T14:38:25;7.07;;;1.42;;
6015;SDS011;3036;49.960;8.454;2023-11-19T14:40:52;5.65;;;1.15;;
6015;SDS011;3036;49.960;8.454;2023-11-19T14:43:19;2.90;;;1.10;;
6015;SDS011;3036;49.960;8.454;2023-11-19T14:45:46;4.15;;;1.10;;
6015;SDS011;3036;49.960;8.454;2023-11-19T14:48:13;5.00;;;1.30;;
6015;SDS011;3036;49.960;8.454;2023-11-19T14:50:40;2.78;;;0.90;;
6015;SDS011;3036;49.960;8.454;2023-11-19T14:53:10;3.60;;;0.75;;
6015;SDS011;3036;49.960;8.454;2023-11-19T14:55:38;3.58;;;1.13;;
6015;SDS011;3036;49.960;8.454;2023-11-19T14:58:05;4.03;;;0.75;;
6015;SDS011;3036;49.960;8.454;2023-11-19T15:00:32;3.58;;;1.00;;
6015;SDS011;3036;49.960;8.454;2023-11-19T15:02:59;8.38;;;1.25;;
6015;SDS011;3036;49.960;8.454;2023-11-19T15:05:26;2.53;;;0.77;;
6015;SDS011;3036;49.960;8.454;2023-11-19T15:07:54;2.88;;;0.88;;
6015;SDS011;3036;49.960;8.454;2023-11-19T15:10:23;3.92;;;1.00;;
6015;SDS011;3036;49.960;8.454;2023-11-19T15:12:51;3.33;;;1.10;;
6015;SDS011;3036;49.960;8.454;2023-11-19T15:15:19;4.40;;;1.20;;
6015;SDS011;3036;49.960;8.454;2023-11-19T15:17:47;3.95;;;0.82;;
6015;SDS011;3036;49.960;8.454;2023-11-19T15:20:14;2.78;;;1.10;;
6015;SDS011;3036;49.960;8.454;2023-11-19T15:22:43;3.97;;;1.10;;
6015;SDS011;3036;49.960;8.454;2023-11-19T15:25:10;5.22;;;1.10;;
6015;SDS011;3036;49.960;8.454;2023-11-19T15:27:39;5.35;;;1.10;;